| Date | Time | Temp. (oF) | Dew Point (oF) | Rel. Hum. (%) | Press. (in.) | Wind Dir. | Wind Speed (mph) | Hourly Rainfall (in.) |
|
|---|---|---|---|---|---|---|---|---|---|
| 1 | 02/22 | 00:00 | 37 | 33 | 86 | 29.85 | E | 2 | 0.00 |
| 2 | 02/21 | 23:00 | 38 | 33 | 84 | 29.87 | ENE | 1 | 0.00 |
| 3 | 02/21 | 22:00 | 38 | 33 | 84 | 29.90 | NNE | 3 | 0.00 |
| 4 | 02/21 | 21:00 | 36 | 32 | 87 | 29.92 | NNE | 5 | 0.00 |
| 5 | 02/21 | 20:00 | 38 | 33 | 83 | 29.93 | SSW | 0 | 0.00 |
| 6 | 02/21 | 19:00 | 39 | 33 | 79 | 29.94 | S | 2 | 0.00 |
| 7 | 02/21 | 18:00 | 41 | 33 | 74 | 29.93 | SSW | 4 | 0.00 |
| 8 | 02/21 | 17:00 | 43 | 32 | 65 | 29.95 | SW | 9 | 0.00 |
| 9 | 02/21 | 16:00 | 42 | 29 | 62 | 29.99 | SW | 8 | 0.00 |
| 10 | 02/21 | 15:00 | 43 | 28 | 56 | 30.01 | SSW | 15 | 0.00 |
| 11 | 02/21 | 14:00 | 42 | 25 | 52 | 30.03 | S | 12 | 0.00 |
| 12 | 02/21 | 13:00 | 43 | 25 | 50 | 30.09 | SSW | 11 | 0.00 |
| 13 | 02/21 | 12:00 | 42 | 25 | 51 | 30.17 | SSW | 10 | 0.00 |
| 14 | 02/21 | 11:00 | 39 | 25 | 57 | 30.22 | SSW | 17 | 0.00 |
| 15 | 02/21 | 10:00 | 37 | 25 | 62 | 30.28 | SSW | 6 | 0.00 |
| 16 | 02/21 | 09:00 | 32 | 25 | 76 | 30.31 | SW | 2 | 0.00 |
| 17 | 02/21 | 08:00 | 26 | 22 | 86 | 30.32 | NE | 1 | 0.00 |
| 18 | 02/21 | 07:00 | 21 | 21 | 100 | 30.30 | NNE | 0 | 0.00 |
| 19 | 02/21 | 06:00 | 23 | 23 | 100 | 30.31 | NNE | 2 | 0.00 |
| 20 | 02/21 | 05:00 | 23 | 23 | 100 | 30.32 | SE | 1 | 0.00 |
| 21 | 02/21 | 04:00 | 22 | 22 | 100 | 30.34 | E | 1 | 0.00 |
| 22 | 02/21 | 03:00 | 22 | 22 | 100 | 30.37 | SW | 0 | 0.00 |
| 23 | 02/21 | 02:00 | 23 | 22 | 97 | 30.35 | NNE | 0 | 0.00 |
| 24 | 02/21 | 01:00 | 24 | 23 | 96 | 30.35 | NE | 1 | 0.00 |